Flight Track Log - Related Links

Times and Time Zones

All times are in EDT time to prevent confusion due to time zone crossing. See the AAY842 flight status page for this flight to view local times or setup timezone preferences in your user account.

Time Position Orientation Groundspeed Altitude Reporting Facility
EDT Latitude Longitude Course Direction KTS MPH feet Rate Location/Type
Mon 03:37:56 PM 27.9000 -82.6833 180° South 158 182 700  Level Tampa TRACON
Mon 03:38:50 PM 27.8500 -82.6833 180° South 199 229 2,000 2,061 Climbing Tampa TRACON
Mon 03:40:39 PM 27.8472 -82.7517 267° West 221 254 6,300 2,556 Climbing Jacksonville Center
Mon 03:41:39 PM 27.9225 -82.7281 15° North 158 182 9,200 2,400 Climbing Jacksonville Center
Mon 03:42:39 PM 28.0017 -82.6906 23° Northeast 229 264 11,100 2,250 Climbing Jacksonville Center
Mon 03:43:39 PM 28.0892 -82.6525 21° North 290 334 13,700 2,050 Climbing Jacksonville Center
Mon 03:44:39 PM 28.1914 -82.6053 22° Northeast 317 365 15,200 1,750 Climbing Jacksonville Center
Mon 03:45:39 PM 28.2914 -82.5508 26° Northeast 363 418 17,200 2,100 Climbing Jacksonville Center
Mon 03:46:39 PM 28.3936 -82.5575 357° North 377 434 19,400 1,900 Climbing Jacksonville Center
Mon 03:47:39 PM 28.4961 -82.5925 343° North 369 425 21,000 1,800 Climbing Jacksonville Center
Mon 03:48:39 PM 28.6003 -82.6253 345° North 374 430 23,000 1,650 Climbing Jacksonville Center
Mon 03:49:39 PM 28.6944 -82.6369 354° North 379 436 24,300 1,400 Climbing Jacksonville Center
Mon 03:50:39 PM 28.8153 -82.6294 North 393 452 25,800 1,350 Climbing Jacksonville Center
Mon 03:51:39 PM 28.9344 -82.6269 North 413 475 27,000 1,200 Climbing Jacksonville Center
Mon 03:52:39 PM 29.0575 -82.6169 North 430 495 28,200 1,050 Climbing Jacksonville Center
Mon 03:53:39 PM 29.1828 -82.6144 North 442 509 29,100 1,050 Climbing Jacksonville Center
Mon 03:54:39 PM 29.3122 -82.6067 North 454 522 30,300 1,150 Climbing Jacksonville Center
Mon 03:55:39 PM 29.4414 -82.6017 North 459 528 31,400 1,350 Climbing Jacksonville Center
Mon 03:56:39 PM 29.5836 -82.5942 North 459 528 33,000 1,350 Climbing Jacksonville Center
Mon 03:57:39 PM 29.7086 -82.5889 North 459 528 34,100 1,000 Climbing Jacksonville Center
Mon 03:58:39 PM 29.8339 -82.5814 North 454 522 35,000 450 Climbing Jacksonville Center
Mon 03:59:39 PM 29.9531 -82.5761 North 444 511 35,000  Level Jacksonville Center
Mon 04:00:39 PM 30.0761 -82.5733 North 439 505 35,000  Level Jacksonville Center
Mon 04:01:39 PM 30.1992 -82.5681 North 439 505 35,000  Level Jacksonville Center
Mon 04:02:39 PM 30.3244 -82.5628 North 439 505 35,000  Level Jacksonville Center
Mon 04:03:39 PM 30.4456 -82.5553 North 439 505 35,000  Level Jacksonville Center
Mon 04:04:39 PM 30.5750 -82.5283 10° North 444 511 35,000  Level Jacksonville Center
Mon 04:05:39 PM 30.6981 -82.4769 20° North 455 524 35,000  Level Jacksonville Center
Mon 04:06:39 PM 30.8231 -82.4331 17° North 455 524 35,000 -50 Level Jacksonville Center
Mon 04:07:39 PM 30.9461 -82.3814 20° North 461 531 34,900  Descending Jacksonville Center
Mon 04:08:39 PM 31.0711 -82.3297 19° North 461 531 35,000 50 Climbing Jacksonville Center
Mon 04:09:39 PM 31.1797 -82.2881 18° North 461 531 35,000  Level Jacksonville Center
Mon 04:10:39 PM 31.3025 -82.2408 18° North 461 531 35,000  Level Jacksonville Center
Mon 04:11:39 PM 31.4275 -82.1914 19° North 461 531 35,000  Level Jacksonville Center
Mon 04:12:39 PM 31.5506 -82.1442 18° North 461 531 35,000  Level Jacksonville Center
Mon 04:13:39 PM 31.6733 -82.0894 21° North 466 536 35,000  Level Jacksonville Center
Mon 04:14:39 PM 31.8086 -82.0344 19° North 466 536 35,000  Level Jacksonville Center
Mon 04:15:39 PM 31.9317 -81.9869 18° North 466 536 35,000  Level Jacksonville Center
Mon 04:16:39 PM 32.0439 -81.9392 20° North 461 531 35,000  Level Jacksonville Center
Mon 04:17:39 PM 32.1792 -81.8714 23° Northeast 474 545 35,000  Level Jacksonville Center
Mon 04:18:39 PM 32.3019 -81.8161 21° North 474 545 35,000  Level Jacksonville Center
Mon 04:19:39 PM 32.4119 -81.7606 23° Northeast 474 545 35,000  Level Jacksonville Center
Mon 04:20:39 PM 32.5514 -81.6947 22° Northeast 474 545 35,000 50 Level Jacksonville Center
Mon 04:21:39 PM 32.6636 -81.6414 22° Northeast 474 545 35,100  Climbing Jacksonville Center
Mon 04:22:39 PM 32.7986 -81.5753 22° Northeast 474 545 35,000 -50 Descending Jacksonville Center
Mon 04:23:39 PM 32.9211 -81.5142 23° Northeast 474 545 35,000  Level Jacksonville Center
Mon 04:24:39 PM 33.0436 -81.4553 22° Northeast 474 545 35,000 -50 Level Jacksonville Center
Mon 04:25:39 PM 33.1658 -81.3961 22° Northeast 474 545 34,900  Descending Jacksonville Center
Mon 04:26:39 PM 33.2883 -81.3369 22° Northeast 474 545 35,000 50 Climbing Jacksonville Center
Mon 04:27:39 PM 33.4108 -81.2753 23° Northeast 469 540 35,000  Level Jacksonville Center
Mon 04:28:39 PM 33.5331 -81.2181 21° North 469 540 35,000  Level Jacksonville Center
Mon 04:29:39 PM 33.6556 -81.1558 23° Northeast 474 545 35,000  Level Jacksonville Center
Mon 04:30:39 PM 33.7653 -81.1014 22° Northeast 474 545 35,000  Level Jacksonville Center
Mon 04:31:39 PM 33.8833 -81.0414 23° Northeast 474 545 35,000  Level Jacksonville Center
Mon 04:32:39 PM 34.0222 -80.9758 21° North 474 545 35,000  Level Jacksonville Center
Mon 04:33:39 PM 34.1403 -80.9206 21° North 468 539 35,000  Level Jacksonville Center
Mon 04:34:39 PM 34.2644 -80.8600 22° Northeast 468 539 35,000  Level Jacksonville Center
Mon 04:36:53 PM 34.5200 -80.7361 22° Northeast 471 542 35,000  Level Atlanta Center
Mon 04:37:53 PM 34.6436 -80.6783 21° North 463 533 35,000  Level Atlanta Center
Mon 04:38:53 PM 34.7628 -80.6153 23° Northeast 469 540 35,000  Level Atlanta Center
Mon 04:39:53 PM 34.9008 -80.5514 21° North 469 540 35,000  Level Atlanta Center
Mon 04:40:53 PM 35.0222 -80.4906 22° Northeast 469 540 35,000  Level Atlanta Center
Mon 04:41:53 PM 35.1414 -80.4294 23° Northeast 469 540 35,000  Level Atlanta Center
Mon 04:42:53 PM 35.2628 -80.3683 22° Northeast 469 540 35,000  Level Atlanta Center
Mon 04:43:53 PM 35.3883 -80.3067 22° Northeast 469 540 35,000  Level Atlanta Center
Mon 04:44:53 PM 35.5094 -80.2450 23° Northeast 469 540 35,000  Level Atlanta Center
Mon 04:45:53 PM 35.6264 -80.1861 22° Northeast 469 540 35,000  Level Atlanta Center
Mon 04:47:55 PM 35.8636 -80.0722 21° North 480 552 35,000  Level Washington Center
Mon 04:48:55 PM 35.9825 -80.0122 22° Northeast 474 545 35,000 50 Level Washington Center
Mon 04:49:56 PM 36.1000 -79.9367 27° Northeast 474 545 35,100  Climbing Washington Center
Mon 04:50:57 PM 36.2181 -79.8453 32° Northeast 479 551 35,000 -50 Descending Washington Center
Mon 04:51:57 PM 36.3428 -79.7436 33° Northeast 484 557 35,000  Level Washington Center
Mon 04:52:55 PM 36.4544 -79.6514 34° Northeast 489 563 35,000  Level Washington Center
Mon 04:53:57 PM 36.5681 -79.5642 32° Northeast 489 563 35,000  Level Washington Center
Mon 04:54:58 PM 36.6731 -79.4792 33° Northeast 489 563 35,000  Level Washington Center
Mon 04:55:55 PM 36.7886 -79.3889 32° Northeast 489 563 35,000  Level Washington Center
Mon 04:56:56 PM 36.9061 -79.2986 32° Northeast 489 563 35,000  Level Washington Center
Mon 04:57:57 PM 37.0217 -79.2028 34° Northeast 494 568 35,000  Level Washington Center
Mon 04:58:57 PM 37.1500 -79.1019 32° Northeast 489 563 35,000  Level Washington Center
Mon 04:59:55 PM 37.2653 -79.0053 34° Northeast 489 563 35,000  Level Washington Center
Mon 05:00:55 PM 37.3847 -78.9114 32° Northeast 489 563 35,000  Level Washington Center
Mon 05:01:56 PM 37.4914 -78.8244 33° Northeast 494 568 35,000  Level Washington Center
Mon 05:02:56 PM 37.6086 -78.7297 33° Northeast 494 568 35,000  Level Washington Center
Mon 05:03:57 PM 37.7217 -78.6372 33° Northeast 494 568 35,000  Level Washington Center
Mon 05:04:57 PM 37.8514 -78.5319 33° Northeast 494 568 35,000  Level Washington Center
Mon 05:05:55 PM 37.9686 -78.4367 33° Northeast 494 568 35,000  Level Washington Center
Mon 05:06:56 PM 38.0792 -78.3406 34° Northeast 494 568 35,000  Level Washington Center
Mon 05:07:56 PM 38.1961 -78.2444 33° Northeast 494 568 35,000  Level Washington Center
Mon 05:08:57 PM 38.3108 -78.1453 34° Northeast 500 575 35,000  Level Washington Center
Mon 05:09:55 PM 38.4253 -78.0511 33° Northeast 495 570 35,000  Level Washington Center
Mon 05:10:55 PM 38.5378 -77.9539 32° Northeast 495 570 35,000  Level Washington Center
Mon 05:11:00 PM 38.5239 -77.9476 32° Northeast  Level FlightAware Approximate
Mon 05:11:56 PM 38.6564 -77.8647 30° Northeast 495 570 35,000  Level Washington Center
Mon 05:13:40 PM 38.8569 -77.7656 21° North 458 527 35,000  Level New York Center
Mon 05:14:41 PM 38.9772 -77.7078 20° North 458 527 35,000  Level New York Center
Mon 05:15:40 PM 39.0992 -77.6528 19° North 458 527 35,000 50 Level New York Center
Mon 05:16:40 PM 39.2194 -77.5972 20° North 458 527 35,100  Climbing New York Center
Mon 05:17:40 PM 39.3394 -77.5392 21° North 458 527 35,000 -50 Descending New York Center
Mon 05:18:40 PM 39.4597 -77.4806 21° North 458 527 35,000  Level New York Center
Mon 05:19:40 PM 39.5819 -77.4222 20° North 458 527 35,000  Level New York Center
Mon 05:20:40 PM 39.7019 -77.3633 21° North 458 527 35,000  Level New York Center
Mon 05:21:40 PM 39.8261 -77.3047 20° North 464 534 35,000 50 Level New York Center
Mon 05:22:40 PM 39.9483 -77.2428 21° North 464 534 35,100 -200 Climbing New York Center
Mon 05:23:40 PM 40.0725 -77.1867 19° North 464 534 34,600 -700 Descending New York Center
Mon 05:24:40 PM 40.1861 -77.1264 22° Northeast 456 525 33,700 -950 Descending New York Center
Mon 05:25:40 PM 40.3058 -77.0719 19° North 456 525 32,700 -950 Descending New York Center
Mon 05:26:40 PM 40.4217 -77.0117 22° Northeast 451 519 31,800 -950 Descending New York Center
Mon 05:27:40 PM 40.5394 -76.9542 20° North 451 519 30,800 -1,000 Descending New York Center
Mon 05:28:40 PM 40.6592 -76.8964 20° North 451 519 29,800 -950 Descending New York Center
Mon 05:29:40 PM 40.7725 -76.8408 20° North 440 506 28,900 -900 Descending New York Center
Mon 05:30:40 PM 40.8794 -76.7872 21° North 428 493 28,000 -900 Descending New York Center
Mon 05:31:40 PM 40.9861 -76.7361 20° North 417 480 27,100 -700 Descending New York Center
Mon 05:32:40 PM 41.0931 -76.6822 21° North 412 474 26,600 -700 Descending New York Center
Mon 05:33:40 PM 41.1956 -76.6303 21° North 404 465 25,700 -900 Descending New York Center
Mon 05:34:40 PM 41.2981 -76.5786 21° North 398 458 24,800 -1,000 Descending New York Center
Mon 05:35:40 PM 41.3986 -76.5264 21° North 393 452 23,700 -900 Descending New York Center
Mon 05:36:40 PM 41.5053 -76.4717 21° North 383 441 23,000 -350 Descending New York Center
Mon 05:37:40 PM 41.6036 -76.4219 21° North 377 434 23,000  Level New York Center
Mon 05:38:40 PM 41.7039 -76.3719 20° North 377 434 23,000 -500 Level New York Center
Mon 05:39:40 PM 41.8000 -76.3217 21° North 377 434 22,000 -950 Descending New York Center
Mon 05:40:40 PM 41.8992 -76.2936 12° North 372 428 21,100 -950 Descending New York Center
Mon 05:41:40 PM 41.9953 -76.2822 North 355 409 20,100 -1,000 Descending New York Center
Mon 05:42:40 PM 42.0919 -76.2650 North 355 409 19,100 -1,350 Descending New York Center
Mon 05:43:40 PM 42.1861 -76.2533 North 350 403 17,400 -1,700 Descending New York Center
Mon 05:44:40 PM 42.2803 -76.2417 North 350 403 15,700 -1,569 Descending New York Center
Mon 05:46:13 PM 42.4075 -76.2183 North 327 376 13,400 -1,519 Descending Boston Center
Mon 05:47:14 PM 42.4933 -76.2067 North 316 364 11,800 -1,180 Descending Boston Center
Mon 05:48:15 PM 42.5792 -76.1933 North 313 360 11,000 -738 Descending Boston Center
Mon 05:49:16 PM 42.6711 -76.1392 23° Northeast 304 350 10,300 -990 Descending Boston Center
Mon 05:49:58 PM 42.7219 -76.0994 30° Northeast 283 326 9,300 -1,377 Descending Boston Center
Mon 05:50:17 PM 42.7389 -76.0861 30° Northeast 287 330 8,900 -1,612 Descending Boston Center
Mon 05:51:05 PM 42.7914 -76.0428 31° Northeast 276 318 7,500 -1,700 Descending Boston Center
Mon 05:51:17 PM 42.8056 -76.0336 25° Northeast 278 320 7,200 -1,745 Descending Boston Center
Mon 05:52:00 PM 42.8508 -75.9944 32° Northeast 270 311 5,900 -1,645 Descending Boston Center
Mon 05:52:19 PM 42.8700 -75.9806 28° Northeast 275 316 5,500 -985 Descending Boston Center
Mon 05:53:07 PM 42.9183 -75.9369 33° Northeast 256 295 4,800 -952 Descending Boston Center
Mon 05:53:22 PM 42.9317 -75.9311 18° North 265 305 4,500 -800 Descending Boston Center
Mon 05:54:07 PM 42.9856 -75.9056 19° North 235 270 4,000 -500 Descending Boston Center
Mon 05:54:22 PM 42.9922 -75.9039 10° North 246 283 4,000 -545 Level Boston Center
Mon 05:55:02 PM 43.0369 -75.8925 11° North 218 251 3,500 -787 Descending Boston Center
Mon 05:55:23 PM 43.0536 -75.8856 17° North 234 269 3,200 -500 Descending Boston Center
Mon 05:56:02 PM 43.0933 -75.8867 359° North 191 220 3,000 -300 Descending Boston Center
Mon 05:56:23 PM 43.1025 -75.8950 326° Northwest 209 241 2,900 -316 Descending Boston Center
Mon 05:56:59 PM 43.1114 -75.9331 288° West 163 188 2,700 -375 Descending Boston Center
Mon 05:57:27 PM 43.1144 -75.9558 280° West 182 209 2,500 -716 Descending Boston Center
Mon 05:58:06 PM 43.1111 -75.9972 264° West 134 154 1,900 -700 Descending Boston Center
Mon 05:58:27 PM 43.1142 -76.0078 292° West 159 183 1,800 -700 Descending Boston Center
Mon 05:59:06 PM 43.1094 -76.0464 261° West 121 139 1,200 -689 Descending Boston Center
Mon 05:59:28 PM 43.1117 -76.0550 289° West 142 163 1,100 -585 Descending Boston Center
Mon 06:00:28 PM 43.1089 -76.1111 266° West 129 148 400 -700 Descending Boston Center
Mon 06:02:00 PM 43.1112 -76.1063 57° Northeast  Level Estimated
Mon 06:09:00 PM 43.1112 -76.1063 North  Level Estimated
Mon 06:10:00 PM 43.1112 -76.1063 North  Level Estimated

Login

Don't have an account? Register now (free) for customized features, flight alerts, and more!